sensor_id;sensor_type;location;lat;lon;timestamp;P1;durP1;ratioP1;P2;durP2;ratioP2
17592;SDS011;8915;51.760;14.300;2022-09-25T00:01:23;10.03;;;8.03;;
17592;SDS011;8915;51.760;14.300;2022-09-25T00:03:51;14.20;;;8.20;;
17592;SDS011;8915;51.760;14.300;2022-09-25T00:06:18;9.90;;;7.33;;
17592;SDS011;8915;51.760;14.300;2022-09-25T00:08:46;10.63;;;7.83;;
17592;SDS011;8915;51.760;14.300;2022-09-25T00:11:17;13.40;;;8.60;;
17592;SDS011;8915;51.760;14.300;2022-09-25T00:13:46;10.23;;;7.90;;
17592;SDS011;8915;51.760;14.300;2022-09-25T00:16:13;11.37;;;8.53;;
17592;SDS011;8915;51.760;14.300;2022-09-25T00:18:42;12.53;;;8.17;;
17592;SDS011;8915;51.760;14.300;2022-09-25T00:21:27;9.17;;;7.70;;
17592;SDS011;8915;51.760;14.300;2022-09-25T00:23:55;12.53;;;8.80;;
17592;SDS011;8915;51.760;14.300;2022-09-25T00:26:24;10.70;;;7.80;;
17592;SDS011;8915;51.760;14.300;2022-09-25T00:28:51;10.70;;;8.90;;
17592;SDS011;8915;51.760;14.300;2022-09-25T00:31:18;11.57;;;8.87;;
17592;SDS011;8915;51.760;14.300;2022-09-25T00:33:48;13.23;;;8.80;;
17592;SDS011;8915;51.760;14.300;2022-09-25T00:36:15;11.40;;;8.63;;
17592;SDS011;8915;51.760;14.300;2022-09-25T00:38:43;11.93;;;9.70;;
17592;SDS011;8915;51.760;14.300;2022-09-25T00:41:13;10.37;;;8.40;;
17592;SDS011;8915;51.760;14.300;2022-09-25T00:43:41;8.93;;;7.73;;
17592;SDS011;8915;51.760;14.300;2022-09-25T00:46:10;11.10;;;7.00;;
17592;SDS011;8915;51.760;14.300;2022-09-25T00:48:42;10.83;;;7.53;;
17592;SDS011;8915;51.760;14.300;2022-09-25T00:51:14;9.27;;;7.67;;
17592;SDS011;8915;51.760;14.300;2022-09-25T00:53:45;8.57;;;7.00;;
17592;SDS011;8915;51.760;14.300;2022-09-25T00:56:13;10.03;;;7.60;;
17592;SDS011;8915;51.760;14.300;2022-09-25T00:58:41;9.97;;;8.00;;
17592;SDS011;8915;51.760;14.300;2022-09-25T01:01:07;9.30;;;7.17;;
17592;SDS011;8915;51.760;14.300;2022-09-25T01:03:35;8.23;;;6.73;;
17592;SDS011;8915;51.760;14.300;2022-09-25T01:06:02;8.90;;;7.47;;
17592;SDS011;8915;51.760;14.300;2022-09-25T01:08:29;9.53;;;7.53;;
17592;SDS011;8915;51.760;14.300;2022-09-25T01:10:58;9.17;;;7.30;;
17592;SDS011;8915;51.760;14.300;2022-09-25T01:13:26;9.00;;;6.80;;
17592;SDS011;8915;51.760;14.300;2022-09-25T01:15:56;9.87;;;7.80;;
17592;SDS011;8915;51.760;14.300;2022-09-25T01:18:29;15.47;;;8.33;;
17592;SDS011;8915;51.760;14.300;2022-09-25T01:21:12;8.03;;;6.77;;
17592;SDS011;8915;51.760;14.300;2022-09-25T01:23:50;9.07;;;7.27;;
17592;SDS011;8915;51.760;14.300;2022-09-25T01:26:58;9.80;;;7.53;;
17592;SDS011;8915;51.760;14.300;2022-09-25T01:29:43;11.13;;;7.37;;
17592;SDS011;8915;51.760;14.300;2022-09-25T01:32:19;9.27;;;7.97;;
17592;SDS011;8915;51.760;14.300;2022-09-25T01:34:56;9.80;;;7.83;;
17592;SDS011;8915;51.760;14.300;2022-09-25T01:37:54;10.77;;;8.50;;
17592;SDS011;8915;51.760;14.300;2022-09-25T01:40:25;11.80;;;8.43;;
17592;SDS011;8915;51.760;14.300;2022-09-25T01:42:58;11.17;;;9.03;;
17592;SDS011;8915;51.760;14.300;2022-09-25T01:45:35;9.43;;;8.40;;
17592;SDS011;8915;51.760;14.300;2022-09-25T01:48:07;11.17;;;8.27;;
17592;SDS011;8915;51.760;14.300;2022-09-25T01:50:38;10.87;;;8.17;;
17592;SDS011;8915;51.760;14.300;2022-09-25T01:53:09;12.13;;;8.90;;
17592;SDS011;8915;51.760;14.300;2022-09-25T01:55:40;12.90;;;9.27;;
17592;SDS011;8915;51.760;14.300;2022-09-25T01:58:12;10.47;;;8.60;;
17592;SDS011;8915;51.760;14.300;2022-09-25T02:00:48;10.30;;;8.47;;
17592;SDS011;8915;51.760;14.300;2022-09-25T02:03:20;10.73;;;8.70;;
17592;SDS011;8915;51.760;14.300;2022-09-25T02:05:51;10.20;;;8.87;;
17592;SDS011;8915;51.760;14.300;2022-09-25T02:08:22;12.17;;;8.60;;
17592;SDS011;8915;51.760;14.300;2022-09-25T02:10:53;11.27;;;8.40;;
17592;SDS011;8915;51.760;14.300;2022-09-25T02:13:22;12.83;;;8.90;;
17592;SDS011;8915;51.760;14.300;2022-09-25T02:15:55;11.37;;;8.60;;
17592;SDS011;8915;51.760;14.300;2022-09-25T02:18:24;9.87;;;8.00;;
17592;SDS011;8915;51.760;14.300;2022-09-25T02:21:13;10.03;;;7.73;;
17592;SDS011;8915;51.760;14.300;2022-09-25T02:23:48;9.57;;;7.87;;
17592;SDS011;8915;51.760;14.300;2022-09-25T02:26:21;8.60;;;6.90;;
17592;SDS011;8915;51.760;14.300;2022-09-25T02:28:50;10.37;;;6.97;;
17592;SDS011;8915;51.760;14.300;2022-09-25T02:31:20;9.57;;;7.87;;
17592;SDS011;8915;51.760;14.300;2022-09-25T02:33:48;9.60;;;8.17;;
17592;SDS011;8915;51.760;14.300;2022-09-25T02:36:15;9.20;;;7.10;;
17592;SDS011;8915;51.760;14.300;2022-09-25T02:38:44;8.50;;;7.47;;
17592;SDS011;8915;51.760;14.300;2022-09-25T02:41:15;9.47;;;7.43;;
17592;SDS011;8915;51.760;14.300;2022-09-25T02:43:49;9.37;;;7.80;;
17592;SDS011;8915;51.760;14.300;2022-09-25T02:46:30;9.37;;;6.97;;
17592;SDS011;8915;51.760;14.300;2022-09-25T02:49:04;11.93;;;8.33;;
17592;SDS011;8915;51.760;14.300;2022-09-25T02:51:43;9.30;;;7.53;;
17592;SDS011;8915;51.760;14.300;2022-09-25T02:54:20;11.97;;;7.80;;
17592;SDS011;8915;51.760;14.300;2022-09-25T02:56:51;9.57;;;7.43;;
17592;SDS011;8915;51.760;14.300;2022-09-25T02:59:22;8.60;;;7.40;;
17592;SDS011;8915;51.760;14.300;2022-09-25T03:01:55;8.23;;;6.77;;
17592;SDS011;8915;51.760;14.300;2022-09-25T03:04:22;8.67;;;7.37;;
17592;SDS011;8915;51.760;14.300;2022-09-25T03:06:53;10.10;;;8.23;;
17592;SDS011;8915;51.760;14.300;2022-09-25T03:09:21;10.00;;;7.83;;
17592;SDS011;8915;51.760;14.300;2022-09-25T03:11:47;9.50;;;7.53;;
17592;SDS011;8915;51.760;14.300;2022-09-25T03:14:14;9.87;;;7.93;;
17592;SDS011;8915;51.760;14.300;2022-09-25T03:16:41;12.30;;;7.83;;
17592;SDS011;8915;51.760;14.300;2022-09-25T03:19:12;9.73;;;7.53;;
17592;SDS011;8915;51.760;14.300;2022-09-25T03:21:40;10.10;;;8.10;;
17592;SDS011;8915;51.760;14.300;2022-09-25T03:24:06;12.80;;;8.87;;
17592;SDS011;8915;51.760;14.300;2022-09-25T03:26:33;9.83;;;8.33;;
17592;SDS011;8915;51.760;14.300;2022-09-25T03:28:59;8.47;;;7.40;;
17592;SDS011;8915;51.760;14.300;2022-09-25T03:31:26;8.77;;;7.53;;
17592;SDS011;8915;51.760;14.300;2022-09-25T03:33:53;9.80;;;7.27;;
17592;SDS011;8915;51.760;14.300;2022-09-25T03:36:21;9.13;;;7.43;;
17592;SDS011;8915;51.760;14.300;2022-09-25T03:38:52;9.83;;;7.77;;
17592;SDS011;8915;51.760;14.300;2022-09-25T03:41:22;9.20;;;6.90;;
17592;SDS011;8915;51.760;14.300;2022-09-25T03:43:49;8.63;;;7.27;;
17592;SDS011;8915;51.760;14.300;2022-09-25T03:46:17;9.53;;;7.60;;
17592;SDS011;8915;51.760;14.300;2022-09-25T03:48:44;9.63;;;7.27;;
17592;SDS011;8915;51.760;14.300;2022-09-25T03:51:10;8.73;;;7.73;;
17592;SDS011;8915;51.760;14.300;2022-09-25T03:53:39;9.37;;;7.80;;
17592;SDS011;8915;51.760;14.300;2022-09-25T03:56:06;8.40;;;7.23;;
17592;SDS011;8915;51.760;14.300;2022-09-25T03:58:34;8.47;;;6.73;;
17592;SDS011;8915;51.760;14.300;2022-09-25T04:01:01;9.67;;;8.03;;
17592;SDS011;8915;51.760;14.300;2022-09-25T04:03:29;9.97;;;7.67;;
17592;SDS011;8915;51.760;14.300;2022-09-25T04:05:58;9.77;;;7.93;;
17592;SDS011;8915;51.760;14.300;2022-09-25T04:08:28;8.53;;;7.40;;
17592;SDS011;8915;51.760;14.300;2022-09-25T04:10:57;8.33;;;6.77;;
17592;SDS011;8915;51.760;14.300;2022-09-25T04:13:24;9.60;;;7.43;;
17592;SDS011;8915;51.760;14.300;2022-09-25T04:15:53;10.40;;;8.37;;
17592;SDS011;8915;51.760;14.300;2022-09-25T04:18:20;9.93;;;6.87;;
17592;SDS011;8915;51.760;14.300;2022-09-25T04:20:47;10.87;;;7.67;;
17592;SDS011;8915;51.760;14.300;2022-09-25T04:23:13;9.30;;;7.27;;
17592;SDS011;8915;51.760;14.300;2022-09-25T04:25:40;8.50;;;6.70;;
17592;SDS011;8915;51.760;14.300;2022-09-25T04:28:07;9.63;;;7.37;;
17592;SDS011;8915;51.760;14.300;2022-09-25T04:30:34;10.13;;;6.90;;
17592;SDS011;8915;51.760;14.300;2022-09-25T04:33:01;8.20;;;6.57;;
17592;SDS011;8915;51.760;14.300;2022-09-25T04:35:45;12.83;;;6.90;;
17592;SDS011;8915;51.760;14.300;2022-09-25T04:38:11;7.90;;;6.13;;
17592;SDS011;8915;51.760;14.300;2022-09-25T04:40:38;8.53;;;6.50;;
17592;SDS011;8915;51.760;14.300;2022-09-25T04:43:04;7.47;;;6.33;;
17592;SDS011;8915;51.760;14.300;2022-09-25T04:45:34;7.43;;;6.63;;
17592;SDS011;8915;51.760;14.300;2022-09-25T04:48:01;7.97;;;6.27;;
17592;SDS011;8915;51.760;14.300;2022-09-25T04:50:28;6.70;;;5.77;;
17592;SDS011;8915;51.760;14.300;2022-09-25T04:53:00;7.03;;;6.07;;
17592;SDS011;8915;51.760;14.300;2022-09-25T04:55:27;7.90;;;6.13;;
17592;SDS011;8915;51.760;14.300;2022-09-25T04:57:54;9.17;;;7.00;;
17592;SDS011;8915;51.760;14.300;2022-09-25T05:00:22;7.67;;;6.00;;
17592;SDS011;8915;51.760;14.300;2022-09-25T05:02:51;8.10;;;6.33;;
17592;SDS011;8915;51.760;14.300;2022-09-25T05:05:18;7.43;;;6.30;;
17592;SDS011;8915;51.760;14.300;2022-09-25T05:07:50;7.27;;;5.87;;
17592;SDS011;8915;51.760;14.300;2022-09-25T05:10:18;8.10;;;6.47;;
17592;SDS011;8915;51.760;14.300;2022-09-25T05:12:44;6.67;;;6.00;;
17592;SDS011;8915;51.760;14.300;2022-09-25T05:15:11;8.73;;;7.23;;
17592;SDS011;8915;51.760;14.300;2022-09-25T05:17:38;7.80;;;6.27;;
17592;SDS011;8915;51.760;14.300;2022-09-25T05:20:06;7.00;;;5.73;;
17592;SDS011;8915;51.760;14.300;2022-09-25T05:22:33;9.90;;;6.60;;
17592;SDS011;8915;51.760;14.300;2022-09-25T05:25:00;8.97;;;6.97;;
17592;SDS011;8915;51.760;14.300;2022-09-25T05:27:26;7.57;;;6.13;;
17592;SDS011;8915;51.760;14.300;2022-09-25T05:29:52;7.80;;;6.67;;
17592;SDS011;8915;51.760;14.300;2022-09-25T05:32:19;8.10;;;7.30;;
17592;SDS011;8915;51.760;14.300;2022-09-25T05:34:45;8.60;;;6.70;;
17592;SDS011;8915;51.760;14.300;2022-09-25T05:37:13;9.37;;;8.07;;
17592;SDS011;8915;51.760;14.300;2022-09-25T05:39:39;11.17;;;8.93;;
17592;SDS011;8915;51.760;14.300;2022-09-25T05:42:06;9.63;;;7.43;;
17592;SDS011;8915;51.760;14.300;2022-09-25T05:44:33;12.37;;;9.00;;
17592;SDS011;8915;51.760;14.300;2022-09-25T05:46:59;12.53;;;10.00;;
17592;SDS011;8915;51.760;14.300;2022-09-25T05:49:25;12.63;;;9.33;;
17592;SDS011;8915;51.760;14.300;2022-09-25T05:51:52;11.70;;;9.20;;
17592;SDS011;8915;51.760;14.300;2022-09-25T05:54:20;12.63;;;9.03;;
17592;SDS011;8915;51.760;14.300;2022-09-25T05:56:46;13.37;;;10.53;;
17592;SDS011;8915;51.760;14.300;2022-09-25T05:59:13;12.60;;;10.53;;
17592;SDS011;8915;51.760;14.300;2022-09-25T06:01:39;14.93;;;10.80;;
17592;SDS011;8915;51.760;14.300;2022-09-25T06:04:05;12.07;;;9.93;;
17592;SDS011;8915;51.760;14.300;2022-09-25T06:06:32;13.13;;;9.97;;
17592;SDS011;8915;51.760;14.300;2022-09-25T06:08:58;15.10;;;11.47;;
17592;SDS011;8915;51.760;14.300;2022-09-25T06:11:26;16.20;;;11.57;;
17592;SDS011;8915;51.760;14.300;2022-09-25T06:13:55;13.73;;;10.83;;
17592;SDS011;8915;51.760;14.300;2022-09-25T06:16:22;17.70;;;11.87;;
17592;SDS011;8915;51.760;14.300;2022-09-25T06:18:49;13.63;;;9.87;;
17592;SDS011;8915;51.760;14.300;2022-09-25T06:21:16;13.10;;;10.83;;
17592;SDS011;8915;51.760;14.300;2022-09-25T06:23:42;13.60;;;10.40;;
17592;SDS011;8915;51.760;14.300;2022-09-25T06:26:10;15.67;;;10.60;;
17592;SDS011;8915;51.760;14.300;2022-09-25T06:28:39;11.97;;;10.20;;
17592;SDS011;8915;51.760;14.300;2022-09-25T06:31:05;13.37;;;10.57;;
17592;SDS011;8915;51.760;14.300;2022-09-25T06:33:32;13.33;;;10.67;;
17592;SDS011;8915;51.760;14.300;2022-09-25T06:35:59;15.10;;;11.20;;
17592;SDS011;8915;51.760;14.300;2022-09-25T06:38:25;15.27;;;11.00;;
17592;SDS011;8915;51.760;14.300;2022-09-25T06:40:52;15.53;;;11.13;;
17592;SDS011;8915;51.760;14.300;2022-09-25T06:43:19;15.37;;;11.07;;
17592;SDS011;8915;51.760;14.300;2022-09-25T06:45:47;13.60;;;9.70;;
17592;SDS011;8915;51.760;14.300;2022-09-25T06:48:15;12.67;;;10.47;;
17592;SDS011;8915;51.760;14.300;2022-09-25T06:50:43;13.07;;;9.73;;
17592;SDS011;8915;51.760;14.300;2022-09-25T06:53:11;15.63;;;11.57;;
17592;SDS011;8915;51.760;14.300;2022-09-25T06:55:37;12.80;;;10.53;;
17592;SDS011;8915;51.760;14.300;2022-09-25T06:58:06;17.33;;;10.93;;
17592;SDS011;8915;51.760;14.300;2022-09-25T07:00:35;14.07;;;11.13;;
17592;SDS011;8915;51.760;14.300;2022-09-25T07:03:03;18.13;;;9.97;;
17592;SDS011;8915;51.760;14.300;2022-09-25T07:05:47;16.33;;;12.13;;
17592;SDS011;8915;51.760;14.300;2022-09-25T07:08:14;15.83;;;11.60;;
17592;SDS011;8915;51.760;14.300;2022-09-25T07:10:47;14.13;;;10.93;;
17592;SDS011;8915;51.760;14.300;2022-09-25T07:13:15;13.63;;;10.70;;
17592;SDS011;8915;51.760;14.300;2022-09-25T07:15:42;14.07;;;10.50;;
17592;SDS011;8915;51.760;14.300;2022-09-25T07:18:10;12.47;;;9.50;;
17592;SDS011;8915;51.760;14.300;2022-09-25T07:20:36;14.00;;;10.33;;
17592;SDS011;8915;51.760;14.300;2022-09-25T07:23:02;14.50;;;10.57;;
17592;SDS011;8915;51.760;14.300;2022-09-25T07:25:29;12.13;;;10.20;;
17592;SDS011;8915;51.760;14.300;2022-09-25T07:27:56;12.47;;;9.57;;
17592;SDS011;8915;51.760;14.300;2022-09-25T07:30:25;13.83;;;10.03;;
17592;SDS011;8915;51.760;14.300;2022-09-25T07:32:52;14.07;;;9.33;;
17592;SDS011;8915;51.760;14.300;2022-09-25T07:35:20;12.43;;;8.77;;
17592;SDS011;8915;51.760;14.300;2022-09-25T07:37:47;12.33;;;9.00;;
17592;SDS011;8915;51.760;14.300;2022-09-25T07:40:13;12.27;;;9.00;;
17592;SDS011;8915;51.760;14.300;2022-09-25T07:42:40;34.37;;;16.87;;
17592;SDS011;8915;51.760;14.300;2022-09-25T07:45:07;26.80;;;13.90;;
17592;SDS011;8915;51.760;14.300;2022-09-25T07:47:34;14.97;;;9.77;;
17592;SDS011;8915;51.760;14.300;2022-09-25T07:50:01;11.60;;;8.57;;
17592;SDS011;8915;51.760;14.300;2022-09-25T07:52:29;11.97;;;8.07;;
17592;SDS011;8915;51.760;14.300;2022-09-25T07:54:55;11.83;;;8.30;;
17592;SDS011;8915;51.760;14.300;2022-09-25T07:57:22;12.77;;;7.90;;
17592;SDS011;8915;51.760;14.300;2022-09-25T07:59:49;9.67;;;7.53;;
17592;SDS011;8915;51.760;14.300;2022-09-25T08:02:15;10.50;;;7.67;;
17592;SDS011;8915;51.760;14.300;2022-09-25T08:04:41;9.93;;;6.90;;
17592;SDS011;8915;51.760;14.300;2022-09-25T08:07:08;8.40;;;6.60;;
17592;SDS011;8915;51.760;14.300;2022-09-25T08:09:35;13.40;;;7.10;;
17592;SDS011;8915;51.760;14.300;2022-09-25T08:12:02;8.80;;;7.03;;
17592;SDS011;8915;51.760;14.300;2022-09-25T08:14:29;10.00;;;8.03;;
17592;SDS011;8915;51.760;14.300;2022-09-25T08:16:56;8.43;;;7.53;;
17592;SDS011;8915;51.760;14.300;2022-09-25T08:19:23;12.50;;;6.97;;
17592;SDS011;8915;51.760;14.300;2022-09-25T08:21:51;13.23;;;8.37;;
17592;SDS011;8915;51.760;14.300;2022-09-25T08:24:17;8.90;;;7.03;;
17592;SDS011;8915;51.760;14.300;2022-09-25T08:26:46;10.27;;;6.73;;
17592;SDS011;8915;51.760;14.300;2022-09-25T08:29:12;11.13;;;6.90;;
17592;SDS011;8915;51.760;14.300;2022-09-25T08:31:39;10.07;;;6.20;;
17592;SDS011;8915;51.760;14.300;2022-09-25T08:34:05;7.57;;;6.30;;
17592;SDS011;8915;51.760;14.300;2022-09-25T08:36:32;7.80;;;6.53;;
17592;SDS011;8915;51.760;14.300;2022-09-25T08:38:59;8.73;;;6.83;;
17592;SDS011;8915;51.760;14.300;2022-09-25T08:41:26;9.40;;;6.70;;
17592;SDS011;8915;51.760;14.300;2022-09-25T08:43:58;8.50;;;7.40;;
17592;SDS011;8915;51.760;14.300;2022-09-25T08:46:34;9.93;;;7.37;;
17592;SDS011;8915;51.760;14.300;2022-09-25T08:49:22;8.00;;;7.17;;
17592;SDS011;8915;51.760;14.300;2022-09-25T08:51:50;8.60;;;7.20;;
17592;SDS011;8915;51.760;14.300;2022-09-25T08:54:21;11.70;;;8.03;;
17592;SDS011;8915;51.760;14.300;2022-09-25T08:56:49;9.17;;;7.50;;
17592;SDS011;8915;51.760;14.300;2022-09-25T08:59:21;8.87;;;7.47;;
17592;SDS011;8915;51.760;14.300;2022-09-25T09:01:51;10.03;;;7.70;;
17592;SDS011;8915;51.760;14.300;2022-09-25T09:04:23;9.47;;;7.70;;
17592;SDS011;8915;51.760;14.300;2022-09-25T09:06:52;10.80;;;8.17;;
17592;SDS011;8915;51.760;14.300;2022-09-25T09:09:23;9.40;;;7.43;;
17592;SDS011;8915;51.760;14.300;2022-09-25T09:11:56;13.00;;;8.03;;
17592;SDS011;8915;51.760;14.300;2022-09-25T09:14:29;10.53;;;7.93;;
17592;SDS011;8915;51.760;14.300;2022-09-25T09:17:02;11.07;;;8.00;;
17592;SDS011;8915;51.760;14.300;2022-09-25T09:19:31;9.77;;;8.07;;
17592;SDS011;8915;51.760;14.300;2022-09-25T09:22:01;9.60;;;7.83;;
17592;SDS011;8915;51.760;14.300;2022-09-25T09:24:33;10.23;;;8.17;;
17592;SDS011;8915;51.760;14.300;2022-09-25T09:27:13;10.50;;;8.50;;
17592;SDS011;8915;51.760;14.300;2022-09-25T09:29:55;12.47;;;7.53;;
17592;SDS011;8915;51.760;14.300;2022-09-25T09:32:31;11.73;;;8.33;;
17592;SDS011;8915;51.760;14.300;2022-09-25T09:35:10;11.63;;;8.20;;
17592;SDS011;8915;51.760;14.300;2022-09-25T09:37:50;9.40;;;7.23;;
17592;SDS011;8915;51.760;14.300;2022-09-25T09:40:26;11.23;;;8.70;;
17592;SDS011;8915;51.760;14.300;2022-09-25T09:43:03;10.07;;;8.47;;
17592;SDS011;8915;51.760;14.300;2022-09-25T09:45:40;10.07;;;8.07;;
17592;SDS011;8915;51.760;14.300;2022-09-25T09:48:12;10.97;;;8.30;;
17592;SDS011;8915;51.760;14.300;2022-09-25T09:50:45;10.47;;;8.23;;
17592;SDS011;8915;51.760;14.300;2022-09-25T09:53:27;10.20;;;7.90;;
17592;SDS011;8915;51.760;14.300;2022-09-25T09:55:59;11.33;;;8.37;;
17592;SDS011;8915;51.760;14.300;2022-09-25T09:58:30;11.83;;;8.23;;
17592;SDS011;8915;51.760;14.300;2022-09-25T10:01:05;10.20;;;7.80;;
17592;SDS011;8915;51.760;14.300;2022-09-25T10:03:34;9.70;;;7.90;;
17592;SDS011;8915;51.760;14.300;2022-09-25T10:06:03;11.17;;;8.13;;
17592;SDS011;8915;51.760;14.300;2022-09-25T10:08:34;11.30;;;8.70;;
17592;SDS011;8915;51.760;14.300;2022-09-25T10:11:03;11.30;;;8.33;;
17592;SDS011;8915;51.760;14.300;2022-09-25T10:13:35;10.37;;;8.20;;
17592;SDS011;8915;51.760;14.300;2022-09-25T10:16:03;9.60;;;8.23;;
17592;SDS011;8915;51.760;14.300;2022-09-25T10:18:38;11.00;;;8.03;;
17592;SDS011;8915;51.760;14.300;2022-09-25T10:21:09;9.77;;;7.90;;
17592;SDS011;8915;51.760;14.300;2022-09-25T10:23:39;11.33;;;8.27;;
17592;SDS011;8915;51.760;14.300;2022-09-25T10:28:56;12.90;;;8.40;;
17592;SDS011;8915;51.760;14.300;2022-09-25T10:31:26;10.60;;;8.67;;
17592;SDS011;8915;51.760;14.300;2022-09-25T10:33:59;10.00;;;8.10;;
17592;SDS011;8915;51.760;14.300;2022-09-25T10:36:37;12.93;;;8.67;;
17592;SDS011;8915;51.760;14.300;2022-09-25T10:39:18;11.17;;;8.20;;
17592;SDS011;8915;51.760;14.300;2022-09-25T10:41:54;10.10;;;7.97;;
17592;SDS011;8915;51.760;14.300;2022-09-25T10:44:27;8.87;;;7.23;;
17592;SDS011;8915;51.760;14.300;2022-09-25T10:46:58;10.20;;;8.57;;
17592;SDS011;8915;51.760;14.300;2022-09-25T10:50:13;10.20;;;8.23;;
17592;SDS011;8915;51.760;14.300;2022-09-25T10:52:45;9.73;;;8.33;;
17592;SDS011;8915;51.760;14.300;2022-09-25T10:55:18;10.87;;;7.87;;
17592;SDS011;8915;51.760;14.300;2022-09-25T10:57:51;10.33;;;8.13;;
17592;SDS011;8915;51.760;14.300;2022-09-25T11:00:23;9.40;;;8.17;;
17592;SDS011;8915;51.760;14.300;2022-09-25T11:02:52;9.43;;;7.10;;
17592;SDS011;8915;51.760;14.300;2022-09-25T11:05:23;11.57;;;7.97;;
17592;SDS011;8915;51.760;14.300;2022-09-25T11:07:54;10.77;;;8.53;;
17592;SDS011;8915;51.760;14.300;2022-09-25T11:10:24;9.20;;;8.03;;
17592;SDS011;8915;51.760;14.300;2022-09-25T11:12:53;9.50;;;7.97;;
17592;SDS011;8915;51.760;14.300;2022-09-25T11:15:21;10.00;;;7.23;;
17592;SDS011;8915;51.760;14.300;2022-09-25T11:17:52;9.27;;;7.50;;
17592;SDS011;8915;51.760;14.300;2022-09-25T11:20:21;9.20;;;6.93;;
17592;SDS011;8915;51.760;14.300;2022-09-25T11:23:07;8.87;;;7.40;;
17592;SDS011;8915;51.760;14.300;2022-09-25T11:25:51;8.47;;;7.20;;
17592;SDS011;8915;51.760;14.300;2022-09-25T11:28:26;8.77;;;6.83;;
17592;SDS011;8915;51.760;14.300;2022-09-25T11:31:00;8.83;;;7.53;;
17592;SDS011;8915;51.760;14.300;2022-09-25T11:33:34;7.90;;;6.90;;
17592;SDS011;8915;51.760;14.300;2022-09-25T11:36:07;7.47;;;6.10;;
17592;SDS011;8915;51.760;14.300;2022-09-25T11:38:39;6.87;;;5.60;;
17592;SDS011;8915;51.760;14.300;2022-09-25T11:41:32;7.07;;;5.07;;
17592;SDS011;8915;51.760;14.300;2022-09-25T11:44:07;7.47;;;5.90;;
17592;SDS011;8915;51.760;14.300;2022-09-25T11:46:44;6.90;;;6.00;;
17592;SDS011;8915;51.760;14.300;2022-09-25T11:49:19;8.03;;;5.90;;
17592;SDS011;8915;51.760;14.300;2022-09-25T11:51:54;8.37;;;6.40;;
17592;SDS011;8915;51.760;14.300;2022-09-25T11:54:52;6.70;;;5.60;;
17592;SDS011;8915;51.760;14.300;2022-09-25T11:57:34;7.00;;;5.87;;
17592;SDS011;8915;51.760;14.300;2022-09-25T12:00:12;7.43;;;5.37;;
17592;SDS011;8915;51.760;14.300;2022-09-25T12:02:52;6.40;;;5.63;;
17592;SDS011;8915;51.760;14.300;2022-09-25T12:05:39;11.17;;;5.63;;
17592;SDS011;8915;51.760;14.300;2022-09-25T12:08:26;6.70;;;5.83;;
17592;SDS011;8915;51.760;14.300;2022-09-25T12:11:09;5.80;;;5.20;;
17592;SDS011;8915;51.760;14.300;2022-09-25T12:13:45;7.77;;;5.67;;
17592;SDS011;8915;51.760;14.300;2022-09-25T12:16:20;6.87;;;4.80;;
17592;SDS011;8915;51.760;14.300;2022-09-25T12:18:57;6.70;;;5.97;;
17592;SDS011;8915;51.760;14.300;2022-09-25T12:21:37;7.30;;;5.20;;
17592;SDS011;8915;51.760;14.300;2022-09-25T12:24:13;6.37;;;5.37;;
17592;SDS011;8915;51.760;14.300;2022-09-25T12:26:51;7.63;;;5.80;;
17592;SDS011;8915;51.760;14.300;2022-09-25T12:29:27;8.43;;;5.53;;
17592;SDS011;8915;51.760;14.300;2022-09-25T12:32:04;9.17;;;6.10;;
17592;SDS011;8915;51.760;14.300;2022-09-25T12:34:45;7.10;;;5.70;;
17592;SDS011;8915;51.760;14.300;2022-09-25T12:37:30;7.07;;;5.60;;
17592;SDS011;8915;51.760;14.300;2022-09-25T12:40:10;6.07;;;5.17;;
17592;SDS011;8915;51.760;14.300;2022-09-25T12:42:43;7.03;;;5.70;;
17592;SDS011;8915;51.760;14.300;2022-09-25T12:45:15;7.03;;;5.67;;
17592;SDS011;8915;51.760;14.300;2022-09-25T12:50:37;5.83;;;5.00;;
17592;SDS011;8915;51.760;14.300;2022-09-25T12:53:16;6.23;;;4.53;;
17592;SDS011;8915;51.760;14.300;2022-09-25T12:55:49;5.50;;;4.50;;
17592;SDS011;8915;51.760;14.300;2022-09-25T12:58:21;5.40;;;4.60;;
17592;SDS011;8915;51.760;14.300;2022-09-25T13:00:58;5.43;;;4.27;;
17592;SDS011;8915;51.760;14.300;2022-09-25T13:03:37;4.63;;;4.17;;
17592;SDS011;8915;51.760;14.300;2022-09-25T13:06:13;4.63;;;3.70;;
17592;SDS011;8915;51.760;14.300;2022-09-25T13:08:45;3.77;;;3.47;;
17592;SDS011;8915;51.760;14.300;2022-09-25T13:11:18;6.50;;;3.80;;
17592;SDS011;8915;51.760;14.300;2022-09-25T13:13:55;4.53;;;4.00;;
17592;SDS011;8915;51.760;14.300;2022-09-25T13:16:22;6.67;;;4.10;;
17592;SDS011;8915;51.760;14.300;2022-09-25T13:21:35;4.87;;;4.37;;
17592;SDS011;8915;51.760;14.300;2022-09-25T13:24:05;4.43;;;4.03;;
17592;SDS011;8915;51.760;14.300;2022-09-25T13:26:41;5.67;;;4.53;;
17592;SDS011;8915;51.760;14.300;2022-09-25T13:29:13;4.90;;;4.20;;
17592;SDS011;8915;51.760;14.300;2022-09-25T13:31:47;4.37;;;3.97;;
17592;SDS011;8915;51.760;14.300;2022-09-25T13:34:14;4.23;;;3.83;;
17592;SDS011;8915;51.760;14.300;2022-09-25T13:36:44;4.70;;;4.00;;
17592;SDS011;8915;51.760;14.300;2022-09-25T13:39:18;5.03;;;3.77;;
17592;SDS011;8915;51.760;14.300;2022-09-25T13:42:06;3.60;;;3.30;;
17592;SDS011;8915;51.760;14.300;2022-09-25T13:50:22;3.60;;;2.67;;
17592;SDS011;8915;51.760;14.300;2022-09-25T13:52:51;4.27;;;3.20;;
17592;SDS011;8915;51.760;14.300;2022-09-25T13:55:41;3.57;;;3.10;;
17592;SDS011;8915;51.760;14.300;2022-09-25T13:58:15;4.03;;;3.10;;
17592;SDS011;8915;51.760;14.300;2022-09-25T14:00:52;5.37;;;3.97;;
17592;SDS011;8915;51.760;14.300;2022-09-25T14:03:33;4.10;;;3.70;;
17592;SDS011;8915;51.760;14.300;2022-09-25T14:06:03;3.83;;;3.30;;
17592;SDS011;8915;51.760;14.300;2022-09-25T14:08:38;3.80;;;3.40;;
17592;SDS011;8915;51.760;14.300;2022-09-25T14:11:08;4.40;;;3.70;;
17592;SDS011;8915;51.760;14.300;2022-09-25T14:13:38;4.43;;;3.53;;
17592;SDS011;8915;51.760;14.300;2022-09-25T14:16:15;4.37;;;3.90;;
17592;SDS011;8915;51.760;14.300;2022-09-25T14:18:50;5.73;;;4.30;;
17592;SDS011;8915;51.760;14.300;2022-09-25T14:21:18;4.40;;;4.00;;
17592;SDS011;8915;51.760;14.300;2022-09-25T14:23:47;4.40;;;3.80;;
17592;SDS011;8915;51.760;14.300;2022-09-25T14:26:18;4.97;;;3.90;;
17592;SDS011;8915;51.760;14.300;2022-09-25T14:28:47;3.50;;;3.20;;
17592;SDS011;8915;51.760;14.300;2022-09-25T14:31:18;4.30;;;3.87;;
17592;SDS011;8915;51.760;14.300;2022-09-25T14:34:02;5.23;;;4.17;;
17592;SDS011;8915;51.760;14.300;2022-09-25T14:36:39;4.70;;;4.00;;
17592;SDS011;8915;51.760;14.300;2022-09-25T14:39:19;4.77;;;3.97;;
17592;SDS011;8915;51.760;14.300;2022-09-25T14:42:01;5.27;;;3.90;;
17592;SDS011;8915;51.760;14.300;2022-09-25T14:44:56;3.90;;;3.50;;
17592;SDS011;8915;51.760;14.300;2022-09-25T14:47:37;4.17;;;3.50;;
17592;SDS011;8915;51.760;14.300;2022-09-25T14:50:09;3.57;;;3.27;;
17592;SDS011;8915;51.760;14.300;2022-09-25T14:52:44;6.03;;;3.30;;
17592;SDS011;8915;51.760;14.300;2022-09-25T14:55:15;3.77;;;3.07;;
17592;SDS011;8915;51.760;14.300;2022-09-25T14:57:46;3.87;;;3.13;;
17592;SDS011;8915;51.760;14.300;2022-09-25T15:00:15;4.77;;;3.60;;
17592;SDS011;8915;51.760;14.300;2022-09-25T15:02:44;4.93;;;3.93;;
17592;SDS011;8915;51.760;14.300;2022-09-25T15:05:15;3.40;;;3.10;;
17592;SDS011;8915;51.760;14.300;2022-09-25T15:07:43;6.03;;;4.37;;
17592;SDS011;8915;51.760;14.300;2022-09-25T15:10:24;8.77;;;5.10;;
17592;SDS011;8915;51.760;14.300;2022-09-25T15:12:53;9.70;;;5.87;;
17592;SDS011;8915;51.760;14.300;2022-09-25T15:15:31;5.30;;;4.50;;
17592;SDS011;8915;51.760;14.300;2022-09-25T15:17:58;5.80;;;4.00;;
17592;SDS011;8915;51.760;14.300;2022-09-25T15:20:26;4.47;;;4.03;;